Time,TemperatureF,DewpointF,PressureIn,WindDirection,WindDirectionDegrees,WindSpeedMPH,WindSpeedGustMPH,Humidity,HourlyPrecipIn,Conditions,Clouds,dailyrainin,SoftwareType,DateUTC
2013-08-19 11:47:00,78.0,63.0,-100.00,SSE,160,4.0,12.0,60,0.00,,,-99.99,,2013-08-19 16:47:00,
2013-08-19 12:30:00,80.0,-99.9,-100.00,South,185,4.0,10.0,58,0.00,,,-99.99,,2013-08-19 17:30:00,
2013-08-19 12:49:00,80.0,63.0,-100.00,South,175,6.0,13.0,57,0.00,,,-99.99,,2013-08-19 17:49:00,
2013-08-19 13:50:00,-999.0,-99.9,-100.00,South,180,6.0,15.0,55,0.00,,,-99.99,,2013-08-19 18:50:00,
2013-08-19 14:00:00,-999.0,-99.9,-100.00,SSW,210,4.0,11.0,54,0.00,,,-99.99,,2013-08-19 19:00:00,
2013-08-19 14:30:00,-999.0,-99.9,-100.00,South,180,4.0,12.0,55,0.00,,,-99.99,,2013-08-19 19:30:00,
2013-08-19 14:50:00,83.0,66.0,-100.00,SW,225,5.0,11.0,56,0.00,,,-99.99,,2013-08-19 19:50:00,
2013-08-19 15:30:00,83.0,65.0,-100.00,SW,230,6.0,13.0,55,0.00,,,-99.99,,2013-08-19 20:30:00,
2013-08-19 15:50:00,84.0,66.0,-100.00,SW,225,6.0,12.0,53,0.00,,,-99.99,,2013-08-19 20:50:00,
2013-08-19 16:00:00,-999.0,-99.9,-100.00,South,175,6.0,13.0,-999,-99.99,,,-99.99,,2013-08-19 21:00:00,
2013-08-19 16:25:00,83.0,65.0,-100.00,South,175,6.0,12.0,55,0.00,,,-99.99,,2013-08-19 21:25:00,
2013-08-19 16:45:00,82.0,65.0,-100.00,South,180,6.0,14.0,56,0.00,,,-99.99,,2013-08-19 21:45:00,
2013-08-19 17:25:00,81.0,65.0,-100.00,South,175,7.0,13.0,58,0.00,,,-99.99,,2013-08-19 22:25:00,
2013-08-19 17:44:00,80.0,65.0,-100.00,South,170,7.0,13.0,59,0.00,,,-99.99,,2013-08-19 22:44:00,
2013-08-19 18:25:00,80.0,65.0,-100.00,SSE,165,8.0,14.0,60,0.00,,,-99.99,,2013-08-19 23:25:00,
2013-08-19 18:48:00,79.0,64.0,-100.00,South,190,7.0,15.0,60,0.00,,,-99.99,,2013-08-19 23:48:00,
2013-08-19 19:23:00,79.0,64.0,-100.00,South,180,9.0,16.0,61,0.00,,,-99.99,,2013-08-20 00:23:00,
2013-08-19 19:42:00,78.0,64.0,-100.00,South,185,11.0,16.0,61,0.00,,,-99.99,,2013-08-20 00:42:00,
2013-08-19 20:22:00,76.0,64.0,-100.00,SSE,160,7.0,11.0,67,0.00,,,-99.99,,2013-08-20 01:22:00,
2013-08-19 20:42:00,74.0,64.0,-100.00,SSE,165,7.0,12.0,69,0.00,,,-99.99,,2013-08-20 01:42:00,
2013-08-19 21:21:00,73.0,65.0,-100.00,SSE,165,6.0,10.0,75,0.00,,,-99.99,,2013-08-20 02:21:00,
2013-08-19 21:42:00,72.0,65.0,-100.00,South,170,7.0,11.0,77,0.00,,,-99.99,,2013-08-20 02:42:00,
2013-08-19 22:22:00,71.0,65.0,-100.00,South,175,4.0,8.0,82,0.00,,,-99.99,,2013-08-20 03:22:00,
2013-08-19 22:43:00,71.0,66.0,-100.00,South,175,4.0,7.0,84,0.00,,,-99.99,,2013-08-20 03:43:00,
2013-08-19 23:23:00,70.0,65.0,-100.00,South,170,2.0,6.0,86,0.00,,,-99.99,,2013-08-20 04:23:00,
2013-08-19 23:43:00,69.0,65.0,-100.00,South,170,2.0,6.0,87,0.00,,,-99.99,,2013-08-20 04:43:00,